Time,TemperatureF,DewpointF,PressureIn,WindDirection,WindDirectionDegrees,WindSpeedMPH,WindSpeedGustMPH,Humidity,HourlyPrecipIn,Conditions,Clouds,dailyrainin,SoftwareType,DateUTC
2013-04-27 00:00:00,52.0,46.4,30.37,East,92,0.0,0.0,81,0.00,,,0.00,WeatherCatV1.11B39,2013-04-27 04:00:00,
2013-04-27 00:01:00,52.0,46.4,30.37,East,92,0.0,0.0,81,0.00,,,0.00,WeatherCatV1.11B39,2013-04-27 04:01:00,
2013-04-27 00:06:00,51.9,46.6,30.37,East,92,0.0,0.0,82,0.00,,,0.00,WeatherCatV1.11B39,2013-04-27 04:06:00,
2013-04-27 00:11:00,51.7,46.7,30.37,ENE,78,0.0,0.0,83,0.00,,,0.00,WeatherCatV1.11B39,2013-04-27 04:11:00,
2013-04-27 00:16:00,51.5,46.8,30.37,ENE,78,0.0,0.0,84,0.00,,,0.00,WeatherCatV1.11B39,2013-04-27 04:16:00,
2013-04-27 00:21:00,51.4,46.7,30.37,ENE,78,0.0,0.0,84,0.00,,,0.00,WeatherCatV1.11B39,2013-04-27 04:21:00,
2013-04-27 00:26:00,51.3,46.9,30.38,ENE,78,0.0,0.0,85,0.00,,,0.00,WeatherCatV1.11B39,2013-04-27 04:26:00,
2013-04-27 00:31:00,51.2,46.8,30.38,ENE,78,0.0,0.0,85,0.00,,,0.00,WeatherCatV1.11B39,2013-04-27 04:31:00,
2013-04-27 00:36:00,51.2,46.8,30.38,ENE,78,0.0,0.0,85,0.00,,,0.00,WeatherCatV1.11B39,2013-04-27 04:36:00,
2013-04-27 00:41:00,51.1,46.7,30.38,NE,49,1.0,2.0,85,0.00,,,0.00,WeatherCatV1.11B39,2013-04-27 04:41:00,
2013-04-27 00:46:00,51.1,46.7,30.37,ENE,72,0.0,0.0,85,0.00,,,0.00,WeatherCatV1.11B39,2013-04-27 04:46:00,
2013-04-27 00:51:00,51.0,46.7,30.37,ENE,72,0.0,0.0,85,0.00,,,0.00,WeatherCatV1.11B39,2013-04-27 04:51:00,
2013-04-27 00:56:00,51.1,46.7,30.38,ENE,72,0.0,0.0,85,0.00,,,0.00,WeatherCatV1.11B39,2013-04-27 04:56:00,
2013-04-27 01:01:00,51.1,46.4,30.37,ENE,72,0.0,0.0,84,0.00,,,0.00,WeatherCatV1.11B39,2013-04-27 05:01:00,
2013-04-27 01:06:00,51.0,46.7,30.37,ENE,72,0.0,1.0,85,0.00,,,0.00,WeatherCatV1.11B39,2013-04-27 05:06:00,
2013-04-27 01:11:00,51.0,46.7,30.37,ENE,72,0.0,0.0,85,0.00,,,0.00,WeatherCatV1.11B39,2013-04-27 05:11:00,
2013-04-27 01:16:00,51.1,46.7,30.36,ENE,72,0.0,0.0,85,0.00,,,0.00,WeatherCatV1.11B39,2013-04-27 05:16:00,
2013-04-27 01:21:00,51.2,46.2,30.36,ENE,61,1.0,3.0,83,0.00,,,0.00,WeatherCatV1.11B39,2013-04-27 05:21:00,
2013-04-27 01:26:00,51.4,46.1,30.36,East,80,0.0,2.0,82,0.00,,,0.00,WeatherCatV1.11B39,2013-04-27 05:26:00,
2013-04-27 01:31:00,51.5,46.2,30.37,ENE,67,0.0,1.0,82,0.00,,,0.00,WeatherCatV1.11B39,2013-04-27 05:31:00,
2013-04-27 01:36:00,51.6,46.6,30.36,ENE,65,0.0,0.0,83,0.00,,,0.00,WeatherCatV1.11B39,2013-04-27 05:36:00,
2013-04-27 01:41:00,51.6,46.9,30.36,ENE,68,0.0,0.0,84,0.00,,,0.00,WeatherCatV1.11B39,2013-04-27 05:41:00,
2013-04-27 01:46:00,51.6,45.0,30.36,ENE,63,0.0,3.0,78,0.00,,,0.00,WeatherCatV1.11B39,2013-04-27 05:46:00,
2013-04-27 01:51:00,52.1,45.1,30.36,ENE,70,0.0,0.0,77,0.00,,,0.00,WeatherCatV1.11B39,2013-04-27 05:51:00,
2013-04-27 01:56:00,52.2,45.9,30.37,ENE,70,0.0,0.0,79,0.00,,,0.00,WeatherCatV1.11B39,2013-04-27 05:56:00,
2013-04-27 02:01:00,52.0,47.0,30.37,ENE,70,0.0,0.0,83,0.00,,,0.00,WeatherCatV1.11B39,2013-04-27 06:01:00,
2013-04-27 02:06:00,51.6,46.9,30.36,ENE,70,0.0,0.0,84,0.00,,,0.00,WeatherCatV1.11B39,2013-04-27 06:06:00,
2013-04-27 02:11:00,51.4,47.0,30.36,ENE,70,0.0,0.0,85,0.00,,,0.00,WeatherCatV1.11B39,2013-04-27 06:11:00,
2013-04-27 02:16:00,51.2,46.8,30.36,ENE,70,0.0,0.0,85,0.00,,,0.00,WeatherCatV1.11B39,2013-04-27 06:16:00,
2013-04-27 02:21:00,51.2,46.8,30.36,ENE,70,0.0,0.0,85,0.00,,,0.00,WeatherCatV1.11B39,2013-04-27 06:21:00,
2013-04-27 02:26:00,51.2,46.8,30.36,ENE,70,0.0,0.0,85,0.00,,,0.00,WeatherCatV1.11B39,2013-04-27 06:26:00,
2013-04-27 02:31:00,51.2,47.2,30.36,ENE,70,0.0,0.0,86,0.00,,,0.00,WeatherCatV1.11B39,2013-04-27 06:31:00,
2013-04-27 02:36:00,51.2,46.8,30.36,ENE,70,0.0,0.0,85,0.00,,,0.00,WeatherCatV1.11B39,2013-04-27 06:36:00,
2013-04-27 02:41:00,51.2,46.8,30.36,ENE,70,0.0,0.0,85,0.00,,,0.00,WeatherCatV1.11B39,2013-04-27 06:41:00,
2013-04-27 02:46:00,51.2,46.8,30.36,ENE,70,0.0,0.0,85,0.00,,,0.00,WeatherCatV1.11B39,2013-04-27 06:46:00,
2013-04-27 02:51:00,51.1,47.1,30.35,ENE,70,0.0,0.0,86,0.00,,,0.00,WeatherCatV1.11B39,2013-04-27 06:51:00,
2013-04-27 02:56:00,51.1,47.1,30.34,ENE,70,0.0,0.0,86,0.00,,,0.00,WeatherCatV1.11B39,2013-04-27 06:56:00,
2013-04-27 03:01:00,51.1,47.1,30.34,ESE,123,1.0,1.0,86,0.00,,,0.00,WeatherCatV1.11B39,2013-04-27 07:01:00,
2013-04-27 03:06:00,51.1,46.7,30.33,SE,139,0.0,0.0,85,0.00,,,0.00,WeatherCatV1.11B39,2013-04-27 07:06:00,
2013-04-27 03:11:00,51.2,46.2,30.33,SE,138,0.0,0.0,83,0.00,,,0.00,WeatherCatV1.11B39,2013-04-27 07:11:00,
2013-04-27 03:16:00,51.4,46.7,30.33,SE,138,0.0,0.0,84,0.00,,,0.00,WeatherCatV1.11B39,2013-04-27 07:16:00,
2013-04-27 03:21:00,51.4,46.1,30.33,SE,138,0.0,0.0,82,0.00,,,0.00,WeatherCatV1.11B39,2013-04-27 07:21:00,
2013-04-27 03:26:00,51.5,45.9,30.33,SE,138,0.0,0.0,81,0.00,,,0.00,WeatherCatV1.11B39,2013-04-27 07:26:00,
2013-04-27 03:31:00,51.6,46.6,30.32,SE,138,0.0,0.0,83,0.00,,,0.00,WeatherCatV1.11B39,2013-04-27 07:31:00,
2013-04-27 03:36:00,51.5,46.5,30.32,SE,138,0.0,0.0,83,0.00,,,0.00,WeatherCatV1.11B39,2013-04-27 07:36:00,
2013-04-27 03:41:00,51.4,46.1,30.32,SE,138,0.0,0.0,82,0.00,,,0.00,WeatherCatV1.11B39,2013-04-27 07:41:00,
2013-04-27 03:46:00,51.4,46.4,30.32,SE,138,0.0,0.0,83,0.00,,,0.00,WeatherCatV1.11B39,2013-04-27 07:46:00,
2013-04-27 03:51:00,51.3,46.6,30.32,SE,126,0.0,0.0,84,0.00,,,0.00,WeatherCatV1.11B39,2013-04-27 07:51:00,
2013-04-27 03:56:00,51.3,46.3,30.32,ESE,120,0.0,0.0,83,0.00,,,0.00,WeatherCatV1.11B39,2013-04-27 07:56:00,
2013-04-27 04:01:00,51.3,46.3,30.32,ESE,119,0.0,0.0,83,0.00,,,0.00,WeatherCatV1.11B39,2013-04-27 08:01:00,
2013-04-27 04:06:00,51.3,46.3,30.33,ESE,119,0.0,0.0,83,0.00,,,0.00,WeatherCatV1.11B39,2013-04-27 08:06:00,
2013-04-27 04:11:00,51.3,46.3,30.33,ENE,75,2.0,2.0,83,0.00,,,0.00,WeatherCatV1.11B39,2013-04-27 08:11:00,
2013-04-27 04:16:00,51.4,46.4,30.32,ENE,60,0.0,1.0,83,0.00,,,0.00,WeatherCatV1.11B39,2013-04-27 08:16:00,
2013-04-27 04:21:00,51.4,46.4,30.33,ENE,59,0.0,0.0,83,0.00,,,0.00,WeatherCatV1.11B39,2013-04-27 08:21:00,
2013-04-27 04:26:00,51.3,46.6,30.32,ENE,59,0.0,0.0,84,0.00,,,0.00,WeatherCatV1.11B39,2013-04-27 08:26:00,
2013-04-27 04:31:00,51.4,47.0,30.32,ENE,64,0.0,0.0,85,0.00,,,0.00,WeatherCatV1.11B39,2013-04-27 08:31:00,
2013-04-27 04:36:00,51.3,46.9,30.33,ENE,64,0.0,0.0,85,0.00,,,0.00,WeatherCatV1.11B39,2013-04-27 08:36:00,
2013-04-27 04:41:00,51.2,47.2,30.33,ENE,63,0.0,0.0,86,0.00,,,0.00,WeatherCatV1.11B39,2013-04-27 08:41:00,
2013-04-27 04:46:00,51.1,47.4,30.33,ENE,63,0.0,0.0,87,0.00,,,0.00,WeatherCatV1.11B39,2013-04-27 08:46:00,
2013-04-27 04:51:00,51.0,47.6,30.33,ENE,63,0.0,0.0,88,0.00,,,0.00,WeatherCatV1.11B39,2013-04-27 08:51:00,
2013-04-27 04:56:00,50.8,47.7,30.34,ENE,63,0.0,0.0,89,0.00,,,0.00,WeatherCatV1.11B39,2013-04-27 08:56:00,
2013-04-27 05:01:00,50.6,47.5,30.33,ENE,63,0.0,0.0,89,0.00,,,0.00,WeatherCatV1.11B39,2013-04-27 09:01:00,
2013-04-27 05:06:00,50.5,47.7,30.33,ENE,64,0.0,0.0,90,0.00,,,0.00,WeatherCatV1.11B39,2013-04-27 09:06:00,
2013-04-27 05:11:00,50.3,47.5,30.33,ENE,64,0.0,0.0,90,0.00,,,0.00,WeatherCatV1.11B39,2013-04-27 09:11:00,
2013-04-27 05:16:00,50.2,47.7,30.33,ENE,64,0.0,0.0,91,0.00,,,0.00,WeatherCatV1.11B39,2013-04-27 09:16:00,
2013-04-27 05:21:00,50.1,47.6,30.33,ENE,64,0.0,0.0,91,0.00,,,0.00,WeatherCatV1.11B39,2013-04-27 09:21:00,
2013-04-27 05:26:00,50.1,47.6,30.33,ENE,64,0.0,0.0,91,0.00,,,0.00,WeatherCatV1.11B39,2013-04-27 09:26:00,
2013-04-27 05:31:00,50.1,47.6,30.33,ENE,64,0.0,0.0,91,0.00,,,0.00,WeatherCatV1.11B39,2013-04-27 09:31:00,
2013-04-27 05:36:00,50.1,47.6,30.32,ENE,64,0.0,0.0,91,0.00,,,0.00,WeatherCatV1.11B39,2013-04-27 09:36:00,
2013-04-27 05:41:00,50.0,47.5,30.32,ENE,64,0.0,0.0,91,0.00,,,0.00,WeatherCatV1.11B39,2013-04-27 09:41:00,
2013-04-27 05:46:00,50.0,47.5,30.32,ENE,64,0.0,0.0,91,0.00,,,0.00,WeatherCatV1.11B39,2013-04-27 09:46:00,
2013-04-27 05:51:00,49.9,47.4,30.32,ENE,64,0.0,0.0,91,0.00,,,0.00,WeatherCatV1.11B39,2013-04-27 09:51:00,
2013-04-27 05:56:00,49.9,47.4,30.32,ENE,64,0.0,0.0,91,0.00,,,0.00,WeatherCatV1.11B39,2013-04-27 09:56:00,
2013-04-27 06:01:00,49.8,47.6,30.32,ENE,64,0.0,0.0,92,0.00,,,0.00,WeatherCatV1.11B39,2013-04-27 10:01:00,
2013-04-27 06:06:00,49.8,47.6,30.32,ENE,64,0.0,0.0,92,0.00,,,0.00,WeatherCatV1.11B39,2013-04-27 10:06:00,
2013-04-27 06:11:00,49.7,47.2,30.33,ENE,64,0.0,0.0,91,0.00,,,0.00,WeatherCatV1.11B39,2013-04-27 10:11:00,
2013-04-27 06:16:00,49.5,47.3,30.33,ENE,64,0.0,0.0,92,0.00,,,0.00,WeatherCatV1.11B39,2013-04-27 10:16:00,
2013-04-27 06:21:00,49.5,47.0,30.33,ENE,64,0.0,0.0,91,0.00,,,0.00,WeatherCatV1.11B39,2013-04-27 10:21:00,
2013-04-27 06:26:00,49.4,47.2,30.34,ENE,64,0.0,0.0,92,0.00,,,0.00,WeatherCatV1.11B39,2013-04-27 10:26:00,
2013-04-27 06:31:00,49.4,47.2,30.34,ENE,64,0.0,0.0,92,0.00,,,0.01,WeatherCatV1.11B39,2013-04-27 10:31:00,
2013-04-27 06:36:00,49.4,47.5,30.34,ENE,64,0.0,0.0,93,0.00,,,0.01,WeatherCatV1.11B39,2013-04-27 10:36:00,
2013-04-27 06:41:00,49.6,47.7,30.34,ENE,64,0.0,0.0,93,0.00,,,0.01,WeatherCatV1.11B39,2013-04-27 10:41:00,
2013-04-27 06:46:00,49.5,47.6,30.34,ENE,64,0.0,0.0,93,0.00,,,0.01,WeatherCatV1.11B39,2013-04-27 10:46:00,
2013-04-27 06:51:00,49.6,47.9,30.34,ENE,64,0.0,0.0,94,0.00,,,0.01,WeatherCatV1.11B39,2013-04-27 10:51:00,
2013-04-27 06:56:00,49.6,47.9,30.34,ENE,64,0.0,0.0,94,0.00,,,0.01,WeatherCatV1.11B39,2013-04-27 10:56:00,
2013-04-27 07:01:00,49.5,47.6,30.33,ENE,64,0.0,0.0,93,0.00,,,0.01,WeatherCatV1.11B39,2013-04-27 11:01:00,
2013-04-27 07:06:00,49.4,47.5,30.33,ENE,64,0.0,0.0,93,0.00,,,0.01,WeatherCatV1.11B39,2013-04-27 11:06:00,
2013-04-27 07:11:00,49.3,47.4,30.33,ENE,64,0.0,0.0,93,0.00,,,0.01,WeatherCatV1.11B39,2013-04-27 11:11:00,
2013-04-27 07:16:00,49.4,47.5,30.32,ENE,64,0.0,0.0,93,0.00,,,0.01,WeatherCatV1.11B39,2013-04-27 11:16:00,
2013-04-27 07:21:00,49.5,47.6,30.32,ENE,63,0.0,0.0,93,0.00,,,0.01,WeatherCatV1.11B39,2013-04-27 11:21:00,
2013-04-27 07:26:00,49.5,47.3,30.32,ENE,64,0.0,0.0,92,0.00,,,0.01,WeatherCatV1.11B39,2013-04-27 11:26:00,
2013-04-27 07:31:00,49.4,47.5,30.33,ENE,64,0.0,0.0,93,0.00,,,0.01,WeatherCatV1.11B39,2013-04-27 11:31:00,
2013-04-27 07:36:00,49.4,47.5,30.33,ENE,64,0.0,0.0,93,0.00,,,0.01,WeatherCatV1.11B39,2013-04-27 11:36:00,
2013-04-27 07:41:00,49.6,47.9,30.34,ENE,65,0.0,0.0,94,0.00,,,0.01,WeatherCatV1.11B39,2013-04-27 11:41:00,
2013-04-27 07:46:00,49.6,47.9,30.33,ENE,64,0.0,0.0,94,0.00,,,0.01,WeatherCatV1.11B39,2013-04-27 11:46:00,
2013-04-27 07:51:00,49.7,48.0,30.33,ENE,65,0.0,0.0,94,0.00,,,0.01,WeatherCatV1.11B39,2013-04-27 11:51:00,
2013-04-27 07:56:00,49.8,48.1,30.34,ENE,64,0.0,0.0,94,0.00,,,0.01,WeatherCatV1.11B39,2013-04-27 11:56:00,
2013-04-27 08:01:00,49.8,48.1,30.33,ENE,64,0.0,0.0,94,0.00,,,0.01,WeatherCatV1.11B39,2013-04-27 12:01:00,
2013-04-27 08:06:00,49.9,48.2,30.33,ENE,64,0.0,0.0,94,0.00,,,0.01,WeatherCatV1.11B39,2013-04-27 12:06:00,
2013-04-27 08:11:00,50.0,48.3,30.33,ENE,65,0.0,0.0,94,0.00,,,0.01,WeatherCatV1.11B39,2013-04-27 12:11:00,
2013-04-27 08:16:00,50.1,48.4,30.33,ENE,77,0.0,0.0,94,0.00,,,0.01,WeatherCatV1.11B39,2013-04-27 12:16:00,
2013-04-27 08:21:00,50.1,48.4,30.32,ENE,77,0.0,0.0,94,0.00,,,0.01,WeatherCatV1.11B39,2013-04-27 12:21:00,
2013-04-27 08:26:00,50.2,48.5,30.33,ENE,77,0.0,0.0,94,0.00,,,0.01,WeatherCatV1.11B39,2013-04-27 12:26:00,
2013-04-27 08:31:00,50.3,48.6,30.33,ENE,77,0.0,0.0,94,0.00,,,0.01,WeatherCatV1.11B39,2013-04-27 12:31:00,
2013-04-27 08:36:00,50.2,48.3,30.33,ENE,77,0.0,0.0,93,0.00,,,0.01,WeatherCatV1.11B39,2013-04-27 12:36:00,
2013-04-27 08:41:00,50.3,48.6,30.33,ENE,77,0.0,0.0,94,0.00,,,0.01,WeatherCatV1.11B39,2013-04-27 12:41:00,
2013-04-27 08:46:00,50.4,48.7,30.33,ENE,77,0.0,0.0,94,0.00,,,0.01,WeatherCatV1.11B39,2013-04-27 12:46:00,
2013-04-27 08:51:00,50.5,48.8,30.33,ENE,77,0.0,0.0,94,0.00,,,0.01,WeatherCatV1.11B39,2013-04-27 12:51:00,
2013-04-27 08:56:00,50.6,48.9,30.33,ENE,77,0.0,0.0,94,0.00,,,0.01,WeatherCatV1.11B39,2013-04-27 12:56:00,
2013-04-27 09:01:00,50.6,48.9,30.33,ENE,77,0.0,0.0,94,0.00,,,0.01,WeatherCatV1.11B39,2013-04-27 13:01:00,
2013-04-27 09:06:00,50.5,48.8,30.33,NE,55,0.0,2.0,94,0.00,,,0.01,WeatherCatV1.11B39,2013-04-27 13:06:00,
2013-04-27 09:11:00,50.5,48.8,30.33,ENE,71,1.0,1.0,94,0.00,,,0.01,WeatherCatV1.11B39,2013-04-27 13:11:00,
2013-04-27 09:16:00,50.5,48.8,30.33,ENE,74,0.0,0.0,94,0.00,,,0.01,WeatherCatV1.11B39,2013-04-27 13:16:00,
2013-04-27 09:21:00,50.5,48.8,30.33,East,79,0.0,0.0,94,0.00,,,0.01,WeatherCatV1.11B39,2013-04-27 13:21:00,
2013-04-27 09:26:00,50.5,48.8,30.33,East,79,0.0,0.0,94,0.00,,,0.01,WeatherCatV1.11B39,2013-04-27 13:26:00,
2013-04-27 09:31:00,50.6,48.7,30.33,East,79,0.0,0.0,93,0.00,,,0.01,WeatherCatV1.11B39,2013-04-27 13:31:00,
2013-04-27 09:36:00,50.6,48.4,30.33,NE,56,0.0,0.0,92,0.00,,,0.01,WeatherCatV1.11B39,2013-04-27 13:36:00,
2013-04-27 09:41:00,50.6,48.4,30.33,NE,56,0.0,0.0,92,0.00,,,0.01,WeatherCatV1.11B39,2013-04-27 13:41:00,
2013-04-27 09:48:00,50.8,48.3,30.33,NE,56,0.0,0.0,91,0.00,,,0.01,WeatherCatV1.11B39,2013-04-27 13:48:00,
2013-04-27 09:53:00,51.0,48.2,30.33,NE,56,0.0,0.0,90,0.00,,,0.01,WeatherCatV1.11B39,2013-04-27 13:53:00,
2013-04-27 09:58:00,51.1,48.3,30.32,NE,56,0.0,0.0,90,0.00,,,0.01,WeatherCatV1.11B39,2013-04-27 13:58:00,
2013-04-27 10:03:00,51.2,48.7,30.32,East,99,0.0,0.0,91,0.00,,,0.01,WeatherCatV1.11B39,2013-04-27 14:03:00,
2013-04-27 10:08:00,51.4,49.2,30.31,East,101,0.0,0.0,92,0.00,,,0.01,WeatherCatV1.11B39,2013-04-27 14:08:00,
2013-04-27 10:13:00,51.6,49.4,30.31,East,101,0.0,0.0,92,0.00,,,0.01,WeatherCatV1.11B39,2013-04-27 14:13:00,
2013-04-27 10:18:00,51.6,49.4,30.31,East,101,0.0,0.0,92,0.00,,,0.01,WeatherCatV1.11B39,2013-04-27 14:18:00,
2013-04-27 10:23:00,51.8,49.8,30.31,East,101,0.0,0.0,93,0.00,,,0.01,WeatherCatV1.11B39,2013-04-27 14:23:00,
2013-04-27 10:28:00,52.0,49.5,30.31,East,101,0.0,0.0,91,0.00,,,0.01,WeatherCatV1.11B39,2013-04-27 14:28:00,
2013-04-27 10:33:00,52.3,50.0,30.31,East,101,0.0,0.0,92,0.00,,,0.01,WeatherCatV1.11B39,2013-04-27 14:33:00,
2013-04-27 10:38:00,52.7,50.1,30.31,NE,54,1.0,2.0,91,0.00,,,0.01,WeatherCatV1.11B39,2013-04-27 14:38:00,
2013-04-27 10:43:00,53.0,50.4,30.31,NE,55,0.0,0.0,91,0.00,,,0.01,WeatherCatV1.11B39,2013-04-27 14:43:00,
2013-04-27 10:48:00,53.2,50.3,30.31,ENE,65,0.0,1.0,90,0.00,,,0.01,WeatherCatV1.11B39,2013-04-27 14:48:00,
2013-04-27 10:53:00,53.3,50.4,30.31,ENE,65,0.0,1.0,90,0.00,,,0.01,WeatherCatV1.11B39,2013-04-27 14:53:00,
2013-04-27 10:58:00,53.3,50.1,30.31,ENE,60,1.0,1.0,89,0.00,,,0.01,WeatherCatV1.11B39,2013-04-27 14:58:00,
2013-04-27 11:03:00,53.2,49.7,30.31,East,81,0.0,0.0,88,0.00,,,0.01,WeatherCatV1.11B39,2013-04-27 15:03:00,
2013-04-27 11:08:00,53.3,49.8,30.32,ENE,67,0.0,2.0,88,0.00,,,0.01,WeatherCatV1.11B39,2013-04-27 15:08:00,
2013-04-27 11:13:00,53.1,48.7,30.32,ENE,57,0.0,1.0,85,0.00,,,0.01,WeatherCatV1.11B39,2013-04-27 15:13:00,
2013-04-27 11:18:00,53.1,49.0,30.32,East,99,0.0,1.0,86,0.00,,,0.01,WeatherCatV1.11B39,2013-04-27 15:18:00,
2013-04-27 11:23:00,53.1,49.0,30.31,ENE,62,0.0,0.0,86,0.00,,,0.01,WeatherCatV1.11B39,2013-04-27 15:23:00,
2013-04-27 11:28:00,53.3,48.9,30.31,ENE,65,0.0,0.0,85,0.00,,,0.01,WeatherCatV1.11B39,2013-04-27 15:28:00,
2013-04-27 11:33:00,53.7,49.9,30.31,East,98,0.0,0.0,87,0.00,,,0.01,WeatherCatV1.11B39,2013-04-27 15:33:00,
2013-04-27 11:38:00,54.2,49.5,30.31,ENE,78,0.0,1.0,84,0.00,,,0.01,WeatherCatV1.11B39,2013-04-27 15:38:00,
2013-04-27 11:43:00,54.4,49.0,30.31,ENE,59,1.0,2.0,82,0.00,,,0.01,WeatherCatV1.11B39,2013-04-27 15:43:00,
2013-04-27 11:48:00,54.2,48.8,30.31,ENE,57,4.0,4.0,82,0.00,,,0.01,WeatherCatV1.11B39,2013-04-27 15:48:00,
2013-04-27 11:53:00,54.1,49.4,30.31,ENE,67,3.0,3.0,84,0.00,,,0.01,WeatherCatV1.11B39,2013-04-27 15:53:00,
2013-04-27 11:58:00,54.1,49.7,30.31,East,84,0.0,0.0,85,0.00,,,0.01,WeatherCatV1.11B39,2013-04-27 15:58:00,
2013-04-27 12:03:00,54.2,49.8,30.31,ENE,76,0.0,1.0,85,0.00,,,0.01,WeatherCatV1.11B39,2013-04-27 16:03:00,
2013-04-27 12:08:00,54.1,49.4,30.31,ENE,66,2.0,2.0,84,0.00,,,0.01,WeatherCatV1.11B39,2013-04-27 16:08:00,
2013-04-27 12:13:00,53.9,49.8,30.31,ENE,62,0.0,1.0,86,0.00,,,0.01,WeatherCatV1.11B39,2013-04-27 16:13:00,
2013-04-27 12:18:00,53.8,49.7,30.31,ESE,111,0.0,0.0,86,0.00,,,0.01,WeatherCatV1.11B39,2013-04-27 16:18:00,
2013-04-27 12:23:00,53.8,49.7,30.31,East,86,0.0,0.0,86,0.00,,,0.01,WeatherCatV1.11B39,2013-04-27 16:23:00,
2013-04-27 12:28:00,53.6,49.8,30.32,SE,129,0.0,0.0,87,0.00,,,0.02,WeatherCatV1.11B39,2013-04-27 16:28:00,
2013-04-27 12:33:00,53.5,49.7,30.32,ESE,122,1.0,1.0,87,0.00,,,0.02,WeatherCatV1.11B39,2013-04-27 16:33:00,
2013-04-27 12:38:00,53.3,49.5,30.32,ESE,114,0.0,1.0,87,0.00,,,0.02,WeatherCatV1.11B39,2013-04-27 16:38:00,
2013-04-27 12:43:00,53.1,49.6,30.32,SE,124,0.0,1.0,88,0.00,,,0.03,WeatherCatV1.11B39,2013-04-27 16:43:00,
2013-04-27 12:48:00,52.9,49.1,30.32,SE,124,0.0,0.0,87,0.00,,,0.03,WeatherCatV1.11B39,2013-04-27 16:48:00,
2013-04-27 12:53:00,52.7,49.5,30.32,SE,124,0.0,0.0,89,0.00,,,0.03,WeatherCatV1.11B39,2013-04-27 16:53:00,
2013-04-27 12:58:00,52.5,49.0,30.32,SE,136,1.0,2.0,88,0.00,,,0.03,WeatherCatV1.11B39,2013-04-27 16:58:00,
2013-04-27 13:03:00,52.4,49.6,30.32,East,101,1.0,1.0,90,0.00,,,0.04,WeatherCatV1.11B39,2013-04-27 17:03:00,
2013-04-27 13:08:00,52.3,49.2,30.32,SE,137,0.0,0.0,89,0.00,,,0.04,WeatherCatV1.11B39,2013-04-27 17:08:00,
2013-04-27 13:13:00,52.2,48.8,30.32,East,100,0.0,0.0,88,0.06,,,0.05,WeatherCatV1.11B39,2013-04-27 17:13:00,
2013-04-27 13:18:00,52.1,49.3,30.32,ESE,105,0.0,0.0,90,0.09,,,0.06,WeatherCatV1.11B39,2013-04-27 17:18:00,
2013-04-27 13:23:00,52.0,49.7,30.32,ESE,105,0.0,0.0,92,0.09,,,0.06,WeatherCatV1.11B39,2013-04-27 17:23:00,
2013-04-27 13:28:00,51.8,49.5,30.32,ESE,105,0.0,0.0,92,0.08,,,0.07,WeatherCatV1.11B39,2013-04-27 17:28:00,
2013-04-27 13:33:00,51.8,49.8,30.32,ESE,105,0.0,0.0,93,0.07,,,0.07,WeatherCatV1.11B39,2013-04-27 17:33:00,
2013-04-27 13:38:00,51.7,49.7,30.32,ESE,105,0.0,0.0,93,0.05,,,0.08,WeatherCatV1.11B39,2013-04-27 17:38:00,
2013-04-27 13:43:00,51.7,49.7,30.32,ESE,105,0.0,0.0,93,0.05,,,0.08,WeatherCatV1.11B39,2013-04-27 17:43:00,
2013-04-27 13:48:00,51.9,50.2,30.32,ESE,104,0.0,0.0,94,0.05,,,0.08,WeatherCatV1.11B39,2013-04-27 17:48:00,
2013-04-27 13:53:00,52.0,50.3,30.33,SE,143,0.0,1.0,94,0.05,,,0.09,WeatherCatV1.11B39,2013-04-27 17:53:00,
2013-04-27 13:58:00,51.9,49.6,30.32,ESE,107,0.0,2.0,92,0.11,,,0.10,WeatherCatV1.11B39,2013-04-27 17:58:00,
2013-04-27 14:03:00,51.8,49.5,30.33,SE,129,0.0,3.0,92,0.11,,,0.11,WeatherCatV1.11B39,2013-04-27 18:03:00,
2013-04-27 14:08:00,51.7,49.5,30.33,East,84,1.0,1.0,92,0.08,,,0.12,WeatherCatV1.11B39,2013-04-27 18:08:00,
2013-04-27 14:13:00,51.6,49.4,30.32,ESE,114,0.0,1.0,92,0.12,,,0.13,WeatherCatV1.11B39,2013-04-27 18:13:00,
2013-04-27 14:18:00,51.6,49.4,30.32,ESE,120,0.0,0.0,92,0.12,,,0.14,WeatherCatV1.11B39,2013-04-27 18:18:00,
2013-04-27 14:23:00,51.4,49.4,30.31,WSW,241,3.0,3.0,93,0.15,,,0.15,WeatherCatV1.11B39,2013-04-27 18:23:00,
2013-04-27 14:28:00,51.3,49.1,30.31,ESE,114,0.0,0.0,92,0.17,,,0.16,WeatherCatV1.11B39,2013-04-27 18:28:00,
2013-04-27 14:33:00,51.2,49.0,30.31,West,260,0.0,0.0,92,0.07,,,0.17,WeatherCatV1.11B39,2013-04-27 18:33:00,
2013-04-27 14:38:00,51.3,49.3,30.32,West,261,0.0,0.0,93,0.12,,,0.18,WeatherCatV1.11B39,2013-04-27 18:38:00,
2013-04-27 14:43:00,51.3,49.1,30.32,West,260,0.0,0.0,92,0.15,,,0.19,WeatherCatV1.11B39,2013-04-27 18:43:00,
2013-04-27 14:48:00,51.4,49.4,30.32,West,260,0.0,0.0,93,0.27,,,0.21,WeatherCatV1.11B39,2013-04-27 18:48:00,
2013-04-27 14:53:00,51.4,49.7,30.32,West,260,0.0,0.0,94,0.15,,,0.22,WeatherCatV1.11B39,2013-04-27 18:53:00,
2013-04-27 14:58:00,51.5,49.8,30.32,West,260,0.0,0.0,94,0.20,,,0.24,WeatherCatV1.11B39,2013-04-27 18:58:00,
2013-04-27 15:03:00,51.4,49.7,30.31,West,259,0.0,2.0,94,0.24,,,0.26,WeatherCatV1.11B39,2013-04-27 19:03:00,
2013-04-27 15:08:00,51.4,49.4,30.31,West,259,0.0,0.0,93,0.20,,,0.27,WeatherCatV1.11B39,2013-04-27 19:08:00,
2013-04-27 15:13:00,51.5,49.8,30.31,WSW,254,0.0,1.0,94,0.12,,,0.28,WeatherCatV1.11B39,2013-04-27 19:13:00,
2013-04-27 15:18:00,51.5,49.5,30.30,WSW,254,0.0,0.0,93,0.11,,,0.29,WeatherCatV1.11B39,2013-04-27 19:18:00,
2013-04-27 15:23:00,51.5,49.5,30.30,SW,236,0.0,1.0,93,0.09,,,0.29,WeatherCatV1.11B39,2013-04-27 19:23:00,
2013-04-27 15:28:00,51.5,49.3,30.29,West,269,0.0,2.0,92,0.08,,,0.30,WeatherCatV1.11B39,2013-04-27 19:28:00,
2013-04-27 15:33:00,51.6,49.6,30.29,West,269,0.0,0.0,93,0.07,,,0.30,WeatherCatV1.11B39,2013-04-27 19:33:00,
2013-04-27 15:38:00,51.9,50.2,30.29,West,269,0.0,0.0,94,0.04,,,0.30,WeatherCatV1.11B39,2013-04-27 19:38:00,
2013-04-27 15:43:00,52.1,50.4,30.30,West,269,0.0,0.0,94,0.04,,,0.31,WeatherCatV1.11B39,2013-04-27 19:43:00,
2013-04-27 15:48:00,52.2,50.8,30.30,West,269,0.0,0.0,95,0.04,,,0.31,WeatherCatV1.11B39,2013-04-27 19:48:00,
2013-04-27 15:53:00,52.2,50.5,30.31,West,269,0.0,0.0,94,0.04,,,0.32,WeatherCatV1.11B39,2013-04-27 19:53:00,
2013-04-27 15:58:00,52.3,50.6,30.31,West,269,0.0,0.0,94,0.04,,,0.32,WeatherCatV1.11B39,2013-04-27 19:58:00,
2013-04-27 16:03:00,52.3,50.6,30.31,West,269,0.0,0.0,94,0.09,,,0.33,WeatherCatV1.11B39,2013-04-27 20:03:00,
2013-04-27 16:08:00,52.3,50.6,30.31,West,269,0.0,0.0,94,0.08,,,0.34,WeatherCatV1.11B39,2013-04-27 20:08:00,
2013-04-27 16:13:00,52.3,50.6,30.31,West,269,0.0,0.0,94,0.11,,,0.35,WeatherCatV1.11B39,2013-04-27 20:13:00,
2013-04-27 16:18:00,52.4,51.0,30.30,West,269,0.0,0.0,95,0.12,,,0.36,WeatherCatV1.11B39,2013-04-27 20:18:00,
2013-04-27 16:23:00,52.4,51.0,30.30,West,269,0.0,0.0,95,0.14,,,0.37,WeatherCatV1.11B39,2013-04-27 20:23:00,
2013-04-27 16:28:00,52.2,50.8,30.29,West,269,0.0,0.0,95,0.14,,,0.38,WeatherCatV1.11B39,2013-04-27 20:28:00,
2013-04-27 16:33:00,52.0,50.3,30.27,West,269,0.0,1.0,94,0.19,,,0.40,WeatherCatV1.11B39,2013-04-27 20:33:00,
2013-04-27 16:38:00,51.8,50.1,30.25,South,187,0.0,1.0,94,0.17,,,0.41,WeatherCatV1.11B39,2013-04-27 20:38:00,
2013-04-27 16:43:00,51.6,49.9,30.25,SSE,165,0.0,0.0,94,0.12,,,0.42,WeatherCatV1.11B39,2013-04-27 20:43:00,
2013-04-27 16:48:00,51.7,50.0,30.25,South,169,0.0,0.0,94,0.08,,,0.42,WeatherCatV1.11B39,2013-04-27 20:48:00,
2013-04-27 16:53:00,51.8,50.4,30.26,South,169,0.0,0.0,95,0.05,,,0.42,WeatherCatV1.11B39,2013-04-27 20:53:00,
2013-04-27 16:58:00,52.0,50.6,30.26,South,169,0.0,0.0,95,0.04,,,0.43,WeatherCatV1.11B39,2013-04-27 20:58:00,
2013-04-27 17:03:00,52.1,50.7,30.25,SE,143,0.0,0.0,95,0.04,,,0.43,WeatherCatV1.11B39,2013-04-27 21:03:00,
2013-04-27 17:08:00,52.1,50.7,30.25,SE,140,0.0,0.0,95,0.04,,,0.43,WeatherCatV1.11B39,2013-04-27 21:08:00,
2013-04-27 17:13:00,52.2,50.8,30.25,SE,137,0.0,0.0,95,0.00,,,0.43,WeatherCatV1.11B39,2013-04-27 21:13:00,
2013-04-27 17:18:00,52.1,50.4,30.25,SE,126,0.0,1.0,94,0.00,,,0.43,WeatherCatV1.11B39,2013-04-27 21:18:00,
2013-04-27 17:23:00,52.1,50.1,30.25,SE,145,0.0,2.0,93,0.00,,,0.43,WeatherCatV1.11B39,2013-04-27 21:23:00,
2013-04-27 17:28:00,52.0,50.0,30.25,ESE,115,0.0,2.0,93,0.00,,,0.43,WeatherCatV1.11B39,2013-04-27 21:28:00,
2013-04-27 17:33:00,51.9,49.9,30.25,ESE,121,2.0,4.0,93,0.00,,,0.44,WeatherCatV1.11B39,2013-04-27 21:33:00,
2013-04-27 17:38:00,51.8,49.5,30.25,SE,127,0.0,2.0,92,0.00,,,0.44,WeatherCatV1.11B39,2013-04-27 21:38:00,
2013-04-27 17:43:00,51.7,49.7,30.25,ESE,123,1.0,3.0,93,0.00,,,0.44,WeatherCatV1.11B39,2013-04-27 21:43:00,
2013-04-27 17:48:00,51.7,50.0,30.26,ESE,120,0.0,0.0,94,0.00,,,0.44,WeatherCatV1.11B39,2013-04-27 21:48:00,
2013-04-27 17:53:00,51.7,50.0,30.25,ESE,120,0.0,1.0,94,0.00,,,0.44,WeatherCatV1.11B39,2013-04-27 21:53:00,
2013-04-27 17:58:00,51.7,50.3,30.26,SE,124,0.0,0.0,95,0.00,,,0.44,WeatherCatV1.11B39,2013-04-27 21:58:00,
2013-04-27 18:03:00,51.5,49.8,30.26,ESE,117,0.0,0.0,94,0.00,,,0.44,WeatherCatV1.11B39,2013-04-27 22:03:00,
2013-04-27 18:08:00,51.4,50.0,30.25,SE,131,0.0,1.0,95,0.00,,,0.45,WeatherCatV1.11B39,2013-04-27 22:08:00,
2013-04-27 18:13:00,51.3,49.6,30.26,SSE,148,0.0,0.0,94,0.10,,,0.46,WeatherCatV1.11B39,2013-04-27 22:13:00,
2013-04-27 18:18:00,51.3,48.8,30.26,ESE,109,0.0,1.0,91,0.16,,,0.47,WeatherCatV1.11B39,2013-04-27 22:18:00,
2013-04-27 18:23:00,51.3,49.3,30.25,ESE,110,0.0,0.0,93,0.13,,,0.48,WeatherCatV1.11B39,2013-04-27 22:23:00,
2013-04-27 18:28:00,51.1,49.1,30.25,ENE,77,0.0,3.0,93,0.19,,,0.50,WeatherCatV1.11B39,2013-04-27 22:28:00,
2013-04-27 18:33:00,50.9,48.9,30.26,SE,129,0.0,1.0,93,0.28,,,0.52,WeatherCatV1.11B39,2013-04-27 22:33:00,
2013-04-27 18:38:00,50.7,49.0,30.26,SE,129,0.0,0.0,94,0.13,,,0.53,WeatherCatV1.11B39,2013-04-27 22:38:00,
2013-04-27 18:43:00,50.6,49.2,30.26,ESE,114,0.0,2.0,95,0.09,,,0.54,WeatherCatV1.11B39,2013-04-27 22:43:00,
2013-04-27 18:48:00,50.6,49.2,30.27,ESE,114,0.0,0.0,95,0.13,,,0.55,WeatherCatV1.11B39,2013-04-27 22:48:00,
2013-04-27 18:53:00,50.5,49.1,30.27,ESE,114,0.0,0.0,95,0.10,,,0.56,WeatherCatV1.11B39,2013-04-27 22:53:00,
2013-04-27 18:58:00,50.4,49.0,30.26,SE,131,3.0,3.0,95,0.15,,,0.57,WeatherCatV1.11B39,2013-04-27 22:58:00,
2013-04-27 19:03:00,50.3,48.6,30.25,South,188,0.0,1.0,94,0.13,,,0.58,WeatherCatV1.11B39,2013-04-27 23:03:00,
2013-04-27 19:08:00,50.3,48.6,30.25,SSW,197,0.0,2.0,94,0.12,,,0.59,WeatherCatV1.11B39,2013-04-27 23:08:00,
2013-04-27 19:13:00,50.2,48.5,30.25,SSE,148,0.0,0.0,94,0.08,,,0.60,WeatherCatV1.11B39,2013-04-27 23:13:00,
2013-04-27 19:18:00,50.2,48.5,30.25,ESE,120,0.0,3.0,94,0.08,,,0.60,WeatherCatV1.11B39,2013-04-27 23:18:00,
2013-04-27 19:23:00,50.1,48.2,30.25,SSW,212,1.0,4.0,93,0.05,,,0.60,WeatherCatV1.11B39,2013-04-27 23:23:00,
2013-04-27 19:28:00,50.1,48.4,30.25,East,98,0.0,0.0,94,0.05,,,0.61,WeatherCatV1.11B39,2013-04-27 23:28:00,
2013-04-27 19:33:00,50.0,48.6,30.24,ESE,120,0.0,0.0,95,0.09,,,0.62,WeatherCatV1.11B39,2013-04-27 23:33:00,
2013-04-27 19:38:00,49.9,48.5,30.24,ESE,113,0.0,1.0,95,0.10,,,0.63,WeatherCatV1.11B39,2013-04-27 23:38:00,
2013-04-27 19:43:00,49.9,48.5,30.24,ESE,120,1.0,3.0,95,0.13,,,0.64,WeatherCatV1.11B39,2013-04-27 23:43:00,
2013-04-27 19:48:00,49.9,48.5,30.24,SE,137,0.0,1.0,95,0.10,,,0.65,WeatherCatV1.11B39,2013-04-27 23:48:00,
2013-04-27 19:53:00,49.9,48.5,30.23,ESE,118,0.0,1.0,95,0.11,,,0.66,WeatherCatV1.11B39,2013-04-27 23:53:00,
2013-04-27 19:58:00,49.9,48.5,30.24,South,171,2.0,2.0,95,0.11,,,0.66,WeatherCatV1.11B39,2013-04-27 23:58:00,
2013-04-27 20:03:00,49.9,48.5,30.24,ESE,114,0.0,0.0,95,0.09,,,0.67,WeatherCatV1.11B39,2013-04-28 00:03:00,
2013-04-27 20:08:00,50.0,48.9,30.24,SE,135,0.0,1.0,96,0.12,,,0.68,WeatherCatV1.11B39,2013-04-28 00:08:00,
2013-04-27 20:13:00,49.9,48.8,30.24,SE,135,0.0,0.0,96,0.09,,,0.69,WeatherCatV1.11B39,2013-04-28 00:13:00,
2013-04-27 20:18:00,49.9,48.8,30.25,South,174,1.0,2.0,96,0.08,,,0.69,WeatherCatV1.11B39,2013-04-28 00:18:00,
2013-04-27 20:23:00,49.9,48.8,30.24,SE,136,0.0,2.0,96,0.05,,,0.69,WeatherCatV1.11B39,2013-04-28 00:23:00,
2013-04-27 20:28:00,49.9,48.5,30.24,East,98,0.0,6.0,95,0.00,,,0.69,WeatherCatV1.11B39,2013-04-28 00:28:00,
2013-04-27 20:33:00,50.0,48.6,30.24,SE,132,0.0,5.0,95,0.00,,,0.69,WeatherCatV1.11B39,2013-04-28 00:33:00,
2013-04-27 20:38:00,50.0,48.6,30.24,ESE,108,0.0,0.0,95,0.00,,,0.69,WeatherCatV1.11B39,2013-04-28 00:38:00,
2013-04-27 20:43:00,50.0,48.6,30.23,ENE,70,0.0,0.0,95,0.00,,,0.70,WeatherCatV1.11B39,2013-04-28 00:43:00,
2013-04-27 20:48:00,50.0,48.9,30.24,ESE,103,0.0,0.0,96,0.00,,,0.70,WeatherCatV1.11B39,2013-04-28 00:48:00,
2013-04-27 20:53:00,50.1,49.0,30.23,SE,134,0.0,2.0,96,0.00,,,0.70,WeatherCatV1.11B39,2013-04-28 00:53:00,
2013-04-27 20:58:00,50.1,49.0,30.24,ESE,106,2.0,2.0,96,0.00,,,0.70,WeatherCatV1.11B39,2013-04-28 00:58:00,
2013-04-27 21:03:00,50.2,49.1,30.24,ENE,58,1.0,2.0,96,0.00,,,0.70,WeatherCatV1.11B39,2013-04-28 01:03:00,
2013-04-27 21:08:00,50.2,49.1,30.24,SE,134,0.0,0.0,96,0.00,,,0.71,WeatherCatV1.11B39,2013-04-28 01:08:00,
2013-04-27 21:13:00,50.3,49.2,30.22,WSW,243,2.0,3.0,96,0.00,,,0.71,WeatherCatV1.11B39,2013-04-28 01:13:00,
2013-04-27 21:18:00,50.4,49.0,30.24,ESE,120,0.0,3.0,95,0.00,,,0.71,WeatherCatV1.11B39,2013-04-28 01:18:00,
2013-04-27 21:23:00,50.6,49.2,30.24,ESE,120,0.0,0.0,95,0.00,,,0.71,WeatherCatV1.11B39,2013-04-28 01:23:00,
2013-04-27 21:28:00,50.5,49.1,30.24,ESE,120,0.0,0.0,95,0.00,,,0.71,WeatherCatV1.11B39,2013-04-28 01:28:00,
2013-04-27 21:33:00,50.5,49.1,30.24,ESE,119,0.0,1.0,95,0.00,,,0.71,WeatherCatV1.11B39,2013-04-28 01:33:00,
2013-04-27 21:38:00,50.4,49.0,30.24,SE,133,0.0,1.0,95,0.00,,,0.71,WeatherCatV1.11B39,2013-04-28 01:38:00,
2013-04-27 21:43:00,50.4,49.3,30.24,SE,133,0.0,0.0,96,0.00,,,0.72,WeatherCatV1.11B39,2013-04-28 01:43:00,
2013-04-27 21:48:00,50.4,49.3,30.25,ESE,108,0.0,0.0,96,0.00,,,0.72,WeatherCatV1.11B39,2013-04-28 01:48:00,
2013-04-27 21:53:00,50.4,49.3,30.24,ESE,108,0.0,0.0,96,0.05,,,0.73,WeatherCatV1.11B39,2013-04-28 01:53:00,
2013-04-27 21:58:00,50.3,49.2,30.24,ESE,111,0.0,1.0,96,0.15,,,0.74,WeatherCatV1.11B39,2013-04-28 01:58:00,
2013-04-27 22:03:00,50.3,49.2,30.24,ESE,111,0.0,0.0,96,0.09,,,0.74,WeatherCatV1.11B39,2013-04-28 02:03:00,
2013-04-27 22:08:00,50.3,49.2,30.24,ESE,108,0.0,0.0,96,0.05,,,0.74,WeatherCatV1.11B39,2013-04-28 02:08:00,
2013-04-27 22:13:00,50.3,49.2,30.24,ESE,108,0.0,0.0,96,0.04,,,0.74,WeatherCatV1.11B39,2013-04-28 02:13:00,
2013-04-27 22:18:00,50.3,49.2,30.24,ESE,108,0.0,0.0,96,0.00,,,0.74,WeatherCatV1.11B39,2013-04-28 02:18:00,
2013-04-27 22:23:00,50.3,49.2,30.24,ESE,108,0.0,0.0,96,0.00,,,0.74,WeatherCatV1.11B39,2013-04-28 02:23:00,
2013-04-27 22:28:00,50.3,49.2,30.24,ESE,108,0.0,0.0,96,0.00,,,0.74,WeatherCatV1.11B39,2013-04-28 02:28:00,
2013-04-27 22:33:00,50.3,49.2,30.24,ESE,108,0.0,0.0,96,0.00,,,0.74,WeatherCatV1.11B39,2013-04-28 02:33:00,
2013-04-27 22:38:00,50.2,49.1,30.24,East,84,0.0,0.0,96,0.00,,,0.75,WeatherCatV1.11B39,2013-04-28 02:38:00,
2013-04-27 22:43:00,50.2,49.1,30.23,East,84,0.0,0.0,96,0.08,,,0.76,WeatherCatV1.11B39,2013-04-28 02:43:00,
2013-04-27 22:48:00,50.2,49.1,30.24,East,84,0.0,0.0,96,0.08,,,0.76,WeatherCatV1.11B39,2013-04-28 02:48:00,
2013-04-27 22:53:00,50.2,49.1,30.23,East,84,0.0,0.0,96,0.07,,,0.77,WeatherCatV1.11B39,2013-04-28 02:53:00,
2013-04-27 22:58:00,50.1,49.0,30.23,East,84,0.0,0.0,96,0.07,,,0.77,WeatherCatV1.11B39,2013-04-28 02:58:00,
2013-04-27 23:03:00,50.1,49.0,30.23,East,84,0.0,0.0,96,0.05,,,0.77,WeatherCatV1.11B39,2013-04-28 03:03:00,
2013-04-27 23:08:00,50.0,48.9,30.23,East,84,0.0,0.0,96,0.00,,,0.77,WeatherCatV1.11B39,2013-04-28 03:08:00,
2013-04-27 23:13:00,49.9,48.8,30.23,East,84,0.0,0.0,96,0.00,,,0.77,WeatherCatV1.11B39,2013-04-28 03:13:00,
2013-04-27 23:18:00,49.8,48.7,30.23,East,84,0.0,0.0,96,0.00,,,0.77,WeatherCatV1.11B39,2013-04-28 03:18:00,
2013-04-27 23:23:00,49.8,48.7,30.23,East,84,0.0,0.0,96,0.00,,,0.77,WeatherCatV1.11B39,2013-04-28 03:23:00,
2013-04-27 23:28:00,49.8,48.7,30.22,East,84,0.0,0.0,96,0.00,,,0.77,WeatherCatV1.11B39,2013-04-28 03:28:00,
2013-04-27 23:33:00,49.7,48.6,30.22,East,88,0.0,0.0,96,0.00,,,0.77,WeatherCatV1.11B39,2013-04-28 03:33:00,
2013-04-27 23:38:00,49.7,48.6,30.22,East,88,0.0,0.0,96,0.00,,,0.77,WeatherCatV1.11B39,2013-04-28 03:38:00,
2013-04-27 23:43:00,49.6,48.5,30.22,ESE,105,0.0,0.0,96,0.00,,,0.77,WeatherCatV1.11B39,2013-04-28 03:43:00,
2013-04-27 23:48:00,49.6,48.5,30.22,ESE,105,0.0,0.0,96,0.00,,,0.77,WeatherCatV1.11B39,2013-04-28 03:48:00,
2013-04-27 23:53:00,49.6,48.5,30.22,ESE,105,0.0,0.0,96,0.00,,,0.77,WeatherCatV1.11B39,2013-04-28 03:53:00,
2013-04-27 23:58:00,49.6,48.8,30.22,ESE,105,0.0,0.0,97,0.00,,,0.77,WeatherCatV1.11B39,2013-04-28 03:58:00,